createdAt,value
2023-03-08T00:00:47.141Z,44.37
2023-03-08T00:01:49.699Z,42.76
2023-03-08T00:02:52.247Z,45.82
2023-03-08T00:03:55.175Z,43.98
2023-03-08T00:04:57.774Z,49.05
2023-03-08T00:06:00.377Z,49.60
2023-03-08T00:07:02.928Z,42.67
2023-03-08T00:08:05.480Z,45.11
2023-03-08T00:09:08.050Z,40.55
2023-03-08T00:10:11.406Z,42.39
2023-03-08T00:11:14.001Z,44.49
2023-03-08T00:12:16.562Z,40.28
2023-03-08T00:13:19.110Z,49.72
2023-03-08T00:14:21.682Z,43.92
2023-03-08T00:15:24.244Z,41.68
2023-03-08T00:16:27.230Z,43.69
2023-03-08T00:17:30.064Z,50.79
2023-03-08T00:18:32.525Z,40.82
2023-03-08T00:19:35.094Z,42.27
2023-03-08T00:20:37.846Z,39.12
2023-03-08T00:21:40.435Z,47.66
2023-03-08T00:22:43.083Z,47.51
2023-03-08T00:23:45.593Z,45.31
2023-03-08T00:24:48.155Z,40.78
2023-03-08T00:25:50.704Z,41.25
2023-03-08T00:26:53.523Z,39.23
2023-03-08T00:27:56.110Z,47.57
2023-03-08T00:28:58.710Z,57.83
2023-03-08T00:30:01.502Z,42.35
2023-03-08T00:31:04.222Z,40.18
2023-03-08T00:32:06.882Z,40.67
2023-03-08T00:33:09.542Z,41.45
2023-03-08T00:34:12.127Z,41.47
2023-03-08T00:35:14.726Z,45.23
2023-03-08T00:36:17.515Z,47.65
2023-03-08T00:37:20.265Z,40.70
2023-03-08T00:38:22.818Z,40.25
2023-03-08T00:39:25.386Z,45.11
2023-03-08T00:40:28.260Z,46.17
2023-03-08T00:41:30.870Z,46.01
2023-03-08T00:42:33.474Z,47.41
2023-03-08T00:43:36.021Z,42.02
2023-03-08T00:44:38.570Z,48.69
2023-03-08T00:45:41.126Z,46.75
2023-03-08T00:46:43.974Z,44.99
2023-03-08T00:47:46.580Z,48.75
2023-03-08T00:48:49.129Z,46.48
2023-03-08T00:49:51.686Z,46.43
2023-03-08T00:50:54.260Z,47.74
2023-03-08T00:51:56.827Z,50.23
2023-03-08T00:52:59.420Z,50.92
2023-03-08T00:54:01.981Z,49.12
2023-03-08T00:55:04.555Z,50.55
2023-03-08T00:56:07.414Z,44.94
2023-03-08T00:57:09.969Z,46.31
2023-03-08T00:58:12.558Z,45.03
2023-03-08T00:59:15.122Z,53.57
2023-03-08T01:00:18.001Z,49.16
2023-03-08T01:01:21.934Z,46.66
2023-03-08T01:02:24.633Z,46.94
2023-03-08T01:03:27.262Z,48.57
2023-03-08T01:04:29.813Z,52.59
2023-03-08T01:05:32.368Z,52.43
2023-03-08T01:06:35.283Z,48.77
2023-03-08T01:07:37.709Z,45.22
2023-03-08T01:08:40.737Z,49.14
2023-03-08T01:09:43.378Z,48.03
2023-03-08T01:10:46.150Z,44.81
2023-03-08T01:11:48.821Z,50.29
2023-03-08T01:12:51.331Z,53.15
2023-03-08T01:13:53.924Z,42.32
2023-03-08T01:14:56.503Z,46.67
2023-03-08T01:15:59.073Z,42.87
2023-03-08T01:17:01.639Z,44.01
2023-03-08T01:18:04.201Z,43.97
2023-03-08T01:19:06.770Z,47.78
2023-03-08T01:20:09.962Z,44.21
2023-03-08T01:21:12.509Z,44.27
2023-03-08T01:22:15.058Z,43.48
2023-03-08T01:23:17.663Z,44.56
2023-03-08T01:24:20.377Z,45.31
2023-03-08T01:25:22.942Z,46.89
2023-03-08T01:26:25.617Z,49.95
2023-03-08T01:27:28.161Z,41.10
2023-03-08T01:28:30.772Z,45.60
2023-03-08T01:29:33.315Z,44.00
2023-03-08T01:30:35.982Z,46.88
2023-03-08T01:31:38.589Z,46.78
2023-03-08T01:32:41.186Z,46.31
2023-03-08T01:33:43.816Z,44.02
2023-03-08T01:34:46.406Z,44.88
2023-03-08T01:35:48.957Z,49.63
2023-03-08T01:36:52.042Z,50.34
2023-03-08T01:37:54.501Z,46.80
2023-03-08T01:38:57.078Z,46.88
2023-03-08T01:39:59.639Z,48.59
2023-03-08T01:41:02.433Z,47.19
2023-03-08T01:42:05.027Z,49.51
2023-03-08T01:43:07.953Z,43.95
2023-03-08T01:44:10.521Z,48.75
2023-03-08T01:45:13.075Z,49.39
2023-03-08T01:46:15.728Z,50.08
2023-03-08T01:47:18.794Z,49.21
2023-03-08T01:48:21.353Z,53.54
2023-03-08T01:49:23.928Z,49.82
2023-03-08T01:50:26.818Z,48.54
2023-03-08T01:51:29.365Z,49.59
2023-03-08T01:52:31.894Z,46.43
2023-03-08T01:53:34.462Z,40.63
2023-03-08T01:54:37.017Z,47.51
2023-03-08T01:55:39.580Z,46.11
2023-03-08T01:56:42.444Z,48.02
2023-03-08T01:57:45.061Z,44.73
2023-03-08T01:58:47.682Z,47.89
2023-03-08T01:59:50.261Z,48.30
2023-03-08T02:00:53.110Z,50.62
2023-03-08T02:01:55.697Z,46.95
2023-03-08T02:02:58.311Z,49.72
2023-03-08T02:04:00.991Z,45.68
2023-03-08T02:05:03.551Z,46.35
2023-03-08T02:06:06.521Z,47.66
2023-03-08T02:07:09.073Z,47.27
2023-03-08T02:08:11.679Z,48.71
2023-03-08T02:09:14.235Z,48.49
2023-03-08T02:10:17.105Z,45.81
2023-03-08T02:11:19.664Z,47.07
2023-03-08T02:12:22.227Z,44.21
2023-03-08T02:13:24.825Z,49.69
2023-03-08T02:14:27.383Z,45.86
2023-03-08T02:15:29.753Z,44.89
2023-03-08T02:16:32.519Z,47.72
2023-03-08T02:17:35.092Z,43.75
2023-03-08T02:18:37.740Z,44.45
2023-03-08T02:19:40.301Z,45.03
2023-03-08T02:20:43.267Z,47.97
2023-03-08T02:21:45.719Z,47.07
2023-03-08T02:22:48.293Z,44.65
2023-03-08T02:23:50.933Z,50.08
2023-03-08T02:24:53.504Z,44.06
2023-03-08T02:25:56.072Z,45.07
2023-03-08T02:26:58.972Z,46.78
2023-03-08T02:28:01.613Z,46.85
2023-03-08T02:29:04.216Z,47.74
2023-03-08T02:30:07.330Z,44.76
2023-03-08T02:31:09.894Z,47.29
2023-03-08T02:32:12.422Z,43.66
2023-03-08T02:33:14.949Z,45.33
2023-03-08T02:34:17.571Z,45.28
2023-03-08T02:35:20.334Z,42.41
2023-03-08T02:36:23.634Z,49.45
2023-03-08T02:37:26.296Z,42.17
2023-03-08T02:38:28.862Z,45.36
2023-03-08T02:39:31.425Z,48.39
2023-03-08T02:40:33.998Z,46.43
2023-03-08T02:41:36.560Z,45.32
2023-03-08T02:42:39.111Z,47.13
2023-03-08T02:43:41.680Z,47.51
2023-03-08T02:44:44.285Z,42.05
2023-03-08T02:45:46.864Z,47.97
2023-03-08T02:46:49.610Z,47.31
2023-03-08T02:47:52.172Z,49.65
2023-03-08T02:48:54.779Z,45.16
2023-03-08T02:49:57.364Z,46.44
2023-03-08T02:51:00.324Z,47.27
2023-03-08T02:52:02.916Z,54.87
2023-03-08T02:53:05.470Z,49.57
2023-03-08T02:54:08.033Z,50.01
2023-03-08T02:55:11.058Z,46.77
2023-03-08T02:56:13.686Z,46.59
2023-03-08T02:57:16.249Z,49.27
2023-03-08T02:58:18.806Z,44.41
2023-03-08T02:59:23.826Z,46.53
2023-03-08T03:00:25.962Z,49.29
2023-03-08T03:01:28.569Z,46.14
2023-03-08T03:02:31.189Z,48.58
2023-03-08T03:03:33.578Z,48.61
2023-03-08T03:04:36.142Z,42.89
2023-03-08T03:05:38.856Z,44.85
2023-03-08T03:06:41.626Z,44.67
2023-03-08T03:07:44.173Z,41.73
2023-03-08T03:08:46.733Z,45.21
2023-03-08T03:09:49.292Z,43.45
2023-03-08T03:10:51.991Z,40.41
2023-03-08T03:11:54.555Z,47.84
2023-03-08T03:12:57.012Z,50.15
2023-03-08T03:13:59.478Z,45.51
2023-03-08T03:15:01.925Z,44.43
2023-03-08T03:16:04.443Z,46.15
2023-03-08T03:17:07.058Z,45.24
2023-03-08T03:18:09.629Z,47.18
2023-03-08T03:19:12.238Z,48.75
2023-03-08T03:20:15.046Z,47.41
2023-03-08T03:21:17.697Z,48.77
2023-03-08T03:22:20.281Z,52.13
2023-03-08T03:23:22.811Z,49.87
2023-03-08T03:24:25.359Z,50.03
2023-03-08T03:25:27.937Z,52.65
2023-03-08T03:26:30.817Z,51.41
2023-03-08T03:27:33.366Z,55.61
2023-03-08T03:28:35.920Z,49.23
2023-03-08T03:29:38.495Z,54.30
2023-03-08T03:30:41.147Z,56.14
2023-03-08T03:31:43.891Z,50.43
2023-03-08T03:32:46.514Z,52.50
2023-03-08T03:33:49.041Z,57.45
2023-03-08T03:34:51.615Z,52.63
2023-03-08T03:35:54.161Z,59.41
2023-03-08T03:36:56.833Z,55.38
2023-03-08T03:37:59.414Z,62.45
2023-03-08T03:39:01.970Z,61.10
2023-03-08T03:40:04.546Z,55.85
2023-03-08T03:41:07.106Z,57.53
2023-03-08T03:42:09.724Z,65.16
2023-03-08T03:43:12.280Z,64.50
2023-03-08T03:44:14.853Z,89.01
2023-03-08T03:45:17.389Z,80.70
2023-03-08T03:46:20.354Z,72.11
2023-03-08T03:47:23.335Z,73.21
2023-03-08T03:48:25.833Z,74.81
2023-03-08T03:49:28.434Z,127.95
2023-03-08T03:50:31.279Z,76.03
2023-03-08T03:51:33.823Z,110.73
2023-03-08T03:52:36.283Z,82.95
2023-03-08T03:53:38.842Z,95.27
2023-03-08T03:54:41.408Z,82.33
2023-03-08T03:55:43.980Z,88.82
2023-03-08T03:56:46.936Z,95.70
2023-03-08T03:57:49.528Z,70.90
2023-03-08T03:58:52.083Z,103.81
2023-03-08T03:59:54.642Z,79.79
2023-03-08T04:00:57.312Z,88.59
2023-03-08T04:01:59.874Z,95.01
2023-03-08T04:03:02.512Z,77.21
2023-03-08T04:04:05.383Z,80.56
2023-03-08T04:05:07.913Z,60.27
2023-03-08T04:06:10.988Z,55.03
2023-03-08T04:07:13.535Z,59.85
2023-03-08T04:08:16.089Z,61.59
2023-03-08T04:09:18.656Z,57.93
2023-03-08T04:10:21.198Z,60.03
2023-03-08T04:11:23.755Z,63.42
2023-03-08T04:12:26.311Z,61.34
2023-03-08T04:13:28.871Z,57.05
2023-03-08T04:14:31.419Z,56.43
2023-03-08T04:15:33.902Z,56.43
2023-03-08T04:16:36.738Z,58.08
2023-03-08T04:17:39.410Z,60.58
2023-03-08T04:18:42.078Z,59.78
2023-03-08T04:19:44.693Z,51.31
2023-03-08T04:20:47.785Z,64.10
2023-03-08T04:21:50.334Z,61.59
2023-03-08T04:22:52.952Z,64.23
2023-03-08T04:23:55.408Z,50.11
2023-03-08T04:24:57.963Z,55.79
2023-03-08T04:26:00.517Z,60.59
2023-03-08T04:27:03.073Z,55.84
2023-03-08T04:28:05.854Z,52.41
2023-03-08T04:29:08.410Z,50.21
2023-03-08T04:30:11.900Z,53.09
2023-03-08T04:31:14.501Z,59.51
2023-03-08T04:32:17.077Z,61.79
2023-03-08T04:33:19.720Z,55.16
2023-03-08T04:34:22.296Z,53.86
2023-03-08T04:35:24.837Z,59.11
2023-03-08T04:36:27.724Z,54.04
2023-03-08T04:37:30.290Z,55.73
2023-03-08T04:38:32.883Z,53.87
2023-03-08T04:39:35.436Z,56.69
2023-03-08T04:40:38.092Z,61.42
2023-03-08T04:41:40.753Z,59.75
2023-03-08T04:42:43.331Z,57.23
2023-03-08T04:43:45.939Z,62.23
2023-03-08T04:44:48.408Z,58.07
2023-03-08T04:45:50.969Z,53.31
2023-03-08T04:46:54.096Z,58.08
2023-03-08T04:47:56.754Z,57.01
2023-03-08T04:48:59.345Z,57.25
2023-03-08T04:50:02.109Z,59.54
2023-03-08T04:51:04.692Z,60.15
2023-03-08T04:52:07.180Z,56.81
2023-03-08T04:53:09.717Z,62.71
2023-03-08T04:54:12.291Z,62.91
2023-03-08T04:55:14.891Z,59.39
2023-03-08T04:56:17.879Z,60.50
2023-03-08T04:57:20.981Z,62.52
2023-03-08T04:58:23.806Z,60.54
2023-03-08T04:59:26.531Z,60.65
2023-03-08T05:00:29.185Z,55.84
2023-03-08T05:01:31.743Z,57.27
2023-03-08T05:02:34.397Z,52.70
2023-03-08T05:03:37.198Z,65.87
2023-03-08T05:04:39.859Z,62.57
2023-03-08T05:05:42.412Z,72.59
2023-03-08T05:06:45.180Z,75.08
2023-03-08T05:07:47.739Z,89.32
2023-03-08T05:08:50.301Z,71.35
2023-03-08T05:09:52.897Z,63.22
2023-03-08T05:10:55.448Z,89.85
2023-03-08T05:11:58.014Z,79.23
2023-03-08T05:13:01.067Z,75.49
2023-03-08T05:14:03.596Z,43.17
2023-03-08T05:15:06.228Z,56.05
2023-03-08T05:16:09.278Z,55.82
2023-03-08T05:17:11.898Z,46.68
2023-03-08T05:18:14.446Z,47.89
2023-03-08T05:19:17.010Z,40.39
2023-03-08T05:20:19.932Z,46.36
2023-03-08T05:21:22.615Z,43.70
2023-03-08T05:22:25.162Z,41.19
2023-03-08T05:23:28.647Z,39.37
2023-03-08T05:24:31.521Z,45.27
2023-03-08T05:25:34.132Z,47.85
2023-03-08T05:26:37.018Z,42.71
2023-03-08T05:27:39.801Z,43.26
2023-03-08T05:28:42.379Z,49.49
2023-03-08T05:29:44.935Z,45.38
2023-03-08T05:30:47.866Z,43.93
2023-03-08T05:31:50.481Z,43.56
2023-03-08T05:32:53.081Z,43.49
2023-03-08T05:33:55.650Z,39.06
2023-03-08T05:34:58.262Z,48.91
2023-03-08T05:36:00.893Z,40.49
2023-03-08T05:37:03.399Z,47.73
2023-03-08T05:38:05.967Z,44.97
2023-03-08T05:39:08.524Z,41.25
2023-03-08T05:40:11.527Z,41.46
2023-03-08T05:41:14.180Z,37.57
2023-03-08T05:42:16.748Z,43.09
2023-03-08T05:43:19.311Z,48.74
2023-03-08T05:44:21.888Z,44.36
2023-03-08T05:45:24.468Z,51.47
2023-03-08T05:46:27.545Z,38.38
2023-03-08T05:47:30.842Z,42.23
2023-03-08T05:48:33.475Z,39.01
2023-03-08T05:49:35.935Z,38.39
2023-03-08T05:50:38.798Z,41.13
2023-03-08T05:51:41.400Z,38.61
2023-03-08T05:52:43.928Z,44.35
2023-03-08T05:53:46.715Z,37.08
2023-03-08T05:54:49.236Z,46.14
2023-03-08T05:55:51.800Z,43.13
2023-03-08T05:56:54.561Z,42.95
2023-03-08T05:57:57.081Z,40.77
2023-03-08T05:58:59.644Z,48.01
2023-03-08T06:00:02.215Z,46.95
2023-03-08T06:01:04.765Z,46.42
2023-03-08T06:02:07.678Z,39.66
2023-03-08T06:03:10.626Z,44.65
2023-03-08T06:04:13.202Z,43.31
2023-03-08T06:05:15.814Z,51.31
2023-03-08T06:06:18.565Z,38.33
2023-03-08T06:07:21.151Z,47.03
2023-03-08T06:08:23.721Z,51.24
2023-03-08T06:09:26.270Z,42.62
2023-03-08T06:10:29.233Z,39.73
2023-03-08T06:11:31.830Z,39.45
2023-03-08T06:12:34.392Z,37.83
2023-03-08T06:13:36.997Z,39.85
2023-03-08T06:14:39.563Z,42.77
2023-03-08T06:15:42.120Z,45.27
2023-03-08T06:16:44.738Z,41.46
2023-03-08T06:17:47.301Z,41.47
2023-03-08T06:18:49.871Z,39.95
2023-03-08T06:19:52.430Z,42.43
2023-03-08T06:20:55.317Z,38.93
2023-03-08T06:21:57.920Z,40.57
2023-03-08T06:23:00.565Z,43.66
2023-03-08T06:24:03.274Z,39.44
2023-03-08T06:25:05.846Z,48.52
2023-03-08T06:26:08.931Z,39.49
2023-03-08T06:27:11.712Z,40.38
2023-03-08T06:28:14.302Z,39.45
2023-03-08T06:29:16.865Z,41.93
2023-03-08T06:30:19.695Z,39.62
2023-03-08T06:31:22.267Z,41.59
2023-03-08T06:32:24.927Z,39.83
2023-03-08T06:33:27.701Z,41.15
2023-03-08T06:34:30.280Z,40.09
2023-03-08T06:35:32.926Z,42.63
2023-03-08T06:36:35.929Z,38.94
2023-03-08T06:37:38.547Z,49.14
2023-03-08T06:38:41.140Z,46.37
2023-03-08T06:39:43.733Z,42.51
2023-03-08T06:40:46.624Z,42.41
2023-03-08T06:41:49.209Z,48.60
2023-03-08T06:42:51.772Z,45.73
2023-03-08T06:43:54.426Z,50.19
2023-03-08T06:44:57.096Z,45.21
2023-03-08T06:45:59.679Z,43.82
2023-03-08T06:47:02.327Z,46.90
2023-03-08T06:48:04.897Z,52.39
2023-03-08T06:49:07.502Z,51.11
2023-03-08T06:50:10.684Z,50.55
2023-03-08T06:51:13.293Z,56.47
2023-03-08T06:52:15.859Z,51.93
2023-03-08T06:53:18.457Z,47.19
2023-03-08T06:54:21.069Z,60.99
2023-03-08T06:55:23.692Z,59.76
2023-03-08T06:56:26.363Z,47.30
2023-03-08T06:57:28.920Z,50.82
2023-03-08T06:58:31.409Z,50.84
2023-03-08T06:59:33.968Z,49.81
2023-03-08T07:00:36.734Z,48.13
2023-03-08T07:01:39.325Z,53.05
2023-03-08T07:02:42.296Z,49.92
2023-03-08T07:03:44.822Z,54.78
2023-03-08T07:04:49.538Z,56.39
2023-03-08T07:05:51.844Z,58.01
2023-03-08T07:06:54.644Z,55.53
2023-03-08T07:07:57.212Z,57.74
2023-03-08T07:08:59.763Z,57.00
2023-03-08T07:10:02.368Z,61.76
2023-03-08T07:11:05.145Z,58.45
2023-03-08T07:12:08.243Z,62.18
2023-03-08T07:13:10.917Z,53.24
2023-03-08T07:14:13.311Z,59.69
2023-03-08T07:15:15.880Z,54.05
2023-03-08T07:16:18.604Z,58.52
2023-03-08T07:17:21.481Z,60.69
2023-03-08T07:18:24.196Z,62.41
2023-03-08T07:19:26.760Z,62.48
2023-03-08T07:20:29.636Z,64.48
2023-03-08T07:21:32.245Z,53.73
2023-03-08T07:22:34.872Z,59.93
2023-03-08T07:23:37.480Z,56.83
2023-03-08T07:24:40.002Z,51.98
2023-03-08T07:25:42.566Z,55.49
2023-03-08T07:26:45.319Z,59.79
2023-03-08T07:27:47.985Z,54.15
2023-03-08T07:28:50.446Z,56.28
2023-03-08T07:29:55.246Z,54.27
2023-03-08T07:30:57.849Z,54.38
2023-03-08T07:32:00.447Z,55.80
2023-03-08T07:33:03.247Z,58.46
2023-03-08T07:34:06.334Z,55.19
2023-03-08T07:35:08.910Z,50.09
2023-03-08T07:36:12.230Z,54.59
2023-03-08T07:37:14.800Z,57.83
2023-03-08T07:38:17.413Z,51.72
2023-03-08T07:39:19.963Z,60.15
2023-03-08T07:40:22.733Z,51.08
2023-03-08T07:41:25.287Z,51.43
2023-03-08T07:42:28.107Z,54.43
2023-03-08T07:43:30.703Z,53.12
2023-03-08T07:44:33.287Z,57.50
2023-03-08T07:45:35.867Z,56.58
2023-03-08T07:46:38.484Z,60.42
2023-03-08T07:47:41.043Z,55.33
2023-03-08T07:48:43.612Z,61.17
2023-03-08T07:49:46.170Z,51.16
2023-03-08T07:50:48.839Z,55.83
2023-03-08T07:51:51.410Z,61.17
2023-03-08T07:52:53.940Z,62.75
2023-03-08T07:53:56.400Z,58.70
2023-03-08T07:54:59.008Z,66.31
2023-03-08T07:56:01.607Z,64.33
2023-03-08T07:57:04.215Z,59.73
2023-03-08T07:58:06.763Z,66.23
2023-03-08T07:59:09.355Z,63.93
2023-03-08T08:00:12.531Z,60.32
2023-03-08T08:01:15.486Z,63.13
2023-03-08T08:02:18.048Z,61.62
2023-03-08T08:03:20.632Z,65.09
2023-03-08T08:04:23.425Z,62.99
2023-03-08T08:05:26.098Z,62.74
2023-03-08T08:06:29.208Z,74.19
2023-03-08T08:07:31.760Z,77.35
2023-03-08T08:08:34.340Z,68.23
2023-03-08T08:09:37.075Z,64.85
2023-03-08T08:10:39.833Z,68.97
2023-03-08T08:11:42.578Z,69.55
2023-03-08T08:12:45.032Z,65.14
2023-03-08T08:13:47.585Z,63.61
2023-03-08T08:14:50.378Z,64.61
2023-03-08T08:15:53.040Z,69.31
2023-03-08T08:16:56.135Z,61.11
2023-03-08T08:17:58.701Z,65.25
2023-03-08T08:19:01.268Z,68.39
2023-03-08T08:20:03.829Z,71.95
2023-03-08T08:21:06.391Z,65.65
2023-03-08T08:22:08.958Z,68.13
2023-03-08T08:23:11.526Z,62.21
2023-03-08T08:24:14.098Z,64.47
2023-03-08T08:25:16.957Z,57.37
2023-03-08T08:26:19.582Z,62.01
2023-03-08T08:27:22.142Z,64.62
2023-03-08T08:28:24.706Z,68.07
2023-03-08T08:29:27.249Z,60.94
2023-03-08T08:30:29.905Z,57.31
2023-03-08T08:31:32.417Z,60.06
2023-03-08T08:32:34.944Z,59.99
2023-03-08T08:33:37.489Z,62.98
2023-03-08T08:34:40.038Z,68.71
2023-03-08T08:35:43.687Z,66.53
2023-03-08T08:36:46.612Z,65.20
2023-03-08T08:37:49.176Z,61.09
2023-03-08T08:38:51.730Z,63.11
2023-03-08T08:39:54.324Z,63.23
2023-03-08T08:40:57.260Z,64.63
2023-03-08T08:41:59.867Z,61.31
2023-03-08T08:43:02.427Z,61.63
2023-03-08T08:44:05.014Z,58.37
2023-03-08T08:45:07.592Z,60.64
2023-03-08T08:46:10.880Z,59.05
2023-03-08T08:47:13.559Z,59.06
2023-03-08T08:48:16.116Z,66.15
2023-03-08T08:49:18.682Z,57.32
2023-03-08T08:50:21.229Z,57.55
2023-03-08T08:51:23.723Z,59.24
2023-03-08T08:52:26.264Z,66.11
2023-03-08T08:53:28.852Z,67.37
2023-03-08T08:54:31.450Z,59.03
2023-03-08T08:55:33.970Z,63.02
2023-03-08T08:56:36.631Z,56.00
2023-03-08T08:57:39.201Z,58.73
2023-03-08T08:58:41.673Z,50.20
2023-03-08T08:59:44.281Z,58.60
2023-03-08T09:00:47.069Z,59.16
2023-03-08T09:01:49.622Z,53.79
2023-03-08T09:02:52.268Z,55.43
2023-03-08T09:03:54.869Z,49.01
2023-03-08T09:04:57.498Z,57.83
2023-03-08T09:06:00.044Z,57.35
2023-03-08T09:07:02.630Z,55.77
2023-03-08T09:08:05.171Z,57.33
2023-03-08T09:09:07.763Z,52.07
2023-03-08T09:10:10.822Z,53.76
2023-03-08T09:11:13.405Z,58.65
2023-03-08T09:12:15.972Z,57.93
2023-03-08T09:13:18.652Z,53.09
2023-03-08T09:14:21.455Z,58.02
2023-03-08T09:15:23.978Z,56.74
2023-03-08T09:16:26.804Z,47.01
2023-03-08T09:17:29.409Z,51.46
2023-03-08T09:18:31.968Z,57.53
2023-03-08T09:19:34.584Z,50.52
2023-03-08T09:20:37.101Z,51.85
2023-03-08T09:21:39.669Z,50.63
2023-03-08T09:22:42.234Z,50.13
2023-03-08T09:23:44.831Z,51.99
2023-03-08T09:24:47.400Z,48.49
2023-03-08T09:25:49.942Z,51.63
2023-03-08T09:26:52.828Z,52.74
2023-03-08T09:27:55.373Z,53.47
2023-03-08T09:28:57.924Z,54.47
2023-03-08T09:30:00.477Z,48.50
2023-03-08T09:31:03.291Z,49.24
2023-03-08T09:32:05.985Z,46.51
2023-03-08T09:33:08.539Z,48.93
2023-03-08T09:34:11.155Z,50.39
2023-03-08T09:35:13.694Z,56.63
2023-03-08T09:36:16.654Z,49.29
2023-03-08T09:37:19.256Z,49.81
2023-03-08T09:38:21.917Z,53.21
2023-03-08T09:39:24.545Z,48.87
2023-03-08T09:40:27.268Z,51.91
2023-03-08T09:41:29.918Z,46.33
2023-03-08T09:42:32.440Z,44.45
2023-03-08T09:43:34.996Z,46.32
2023-03-08T09:44:37.543Z,51.04
2023-03-08T09:45:40.160Z,50.17
2023-03-08T09:46:43.619Z,49.93
2023-03-08T09:47:46.225Z,49.26
2023-03-08T09:48:48.780Z,49.25
2023-03-08T09:49:51.298Z,45.86
2023-03-08T09:50:53.987Z,46.13
2023-03-08T09:51:56.571Z,52.89
2023-03-08T09:52:59.126Z,53.43
2023-03-08T09:54:01.695Z,48.07
2023-03-08T09:55:04.326Z,47.25
2023-03-08T09:56:07.561Z,51.04
2023-03-08T09:57:10.266Z,47.65
2023-03-08T09:58:12.933Z,49.07
2023-03-08T09:59:15.514Z,50.65
2023-03-08T10:00:18.277Z,52.83
2023-03-08T10:01:22.595Z,54.92
2023-03-08T10:02:25.205Z,50.50
2023-03-08T10:03:27.760Z,46.57
2023-03-08T10:04:30.411Z,51.05
2023-03-08T10:05:32.966Z,49.35
2023-03-08T10:06:35.778Z,49.84
2023-03-08T10:07:38.547Z,45.45
2023-03-08T10:08:41.160Z,48.86
2023-03-08T10:09:43.743Z,53.79
2023-03-08T10:10:46.528Z,51.53
2023-03-08T10:11:49.076Z,56.89
2023-03-08T10:12:51.661Z,51.27
2023-03-08T10:13:54.218Z,50.08
2023-03-08T10:14:56.780Z,49.39
2023-03-08T10:16:00.497Z,49.37
2023-03-08T10:17:03.166Z,54.95
2023-03-08T10:18:05.853Z,51.76
2023-03-08T10:19:08.463Z,51.91
2023-03-08T10:20:11.430Z,47.80
2023-03-08T10:21:14.014Z,51.95
2023-03-08T10:22:16.574Z,49.51
2023-03-08T10:23:19.161Z,49.43
2023-03-08T10:24:21.758Z,51.63
2023-03-08T10:25:24.336Z,47.66
2023-03-08T10:26:27.096Z,47.07
2023-03-08T10:27:29.690Z,53.75
2023-03-08T10:28:32.250Z,50.11
2023-03-08T10:29:34.864Z,52.93
2023-03-08T10:30:37.754Z,46.99
2023-03-08T10:31:40.479Z,47.16
2023-03-08T10:32:43.142Z,54.91
2023-03-08T10:33:45.843Z,46.04
2023-03-08T10:34:48.436Z,50.42
2023-03-08T10:35:50.927Z,53.92
2023-03-08T10:36:53.881Z,49.94
2023-03-08T10:37:56.443Z,56.75
2023-03-08T10:38:59.023Z,52.93
2023-03-08T10:40:01.916Z,45.66
2023-03-08T10:41:04.440Z,50.84
2023-03-08T10:42:06.998Z,54.49
2023-03-08T10:43:09.557Z,47.19
2023-03-08T10:44:12.158Z,41.77
2023-03-08T10:45:14.731Z,49.67
2023-03-08T10:46:17.698Z,48.39
2023-03-08T10:47:20.627Z,48.49
2023-03-08T10:48:23.238Z,44.51
2023-03-08T10:49:27.844Z,48.33
2023-03-08T10:50:30.482Z,43.52
2023-03-08T10:51:33.074Z,44.61
2023-03-08T10:52:35.634Z,46.78
2023-03-08T10:53:38.189Z,41.92
2023-03-08T10:54:40.774Z,51.01
2023-03-08T10:55:43.420Z,49.11
2023-03-08T10:56:46.181Z,47.69
2023-03-08T10:57:48.865Z,42.12
2023-03-08T10:58:51.427Z,47.38
2023-03-08T10:59:53.984Z,43.03
2023-03-08T11:00:56.773Z,44.99
2023-03-08T11:01:59.324Z,43.91
2023-03-08T11:03:01.877Z,40.27
2023-03-08T11:04:04.445Z,44.99
2023-03-08T11:05:07.039Z,47.45
2023-03-08T11:06:12.210Z,42.71
2023-03-08T11:07:14.470Z,45.79
2023-03-08T11:08:17.025Z,44.49
2023-03-08T11:09:19.576Z,45.58
2023-03-08T11:10:22.462Z,47.27
2023-03-08T11:11:25.002Z,44.76
2023-03-08T11:12:27.572Z,43.74
2023-03-08T11:13:30.114Z,46.54
2023-03-08T11:14:32.677Z,44.09
2023-03-08T11:15:35.331Z,41.75
2023-03-08T11:16:38.409Z,46.63
2023-03-08T11:17:40.929Z,44.28
2023-03-08T11:18:43.539Z,41.88
2023-03-08T11:19:46.400Z,47.39
2023-03-08T11:20:49.662Z,50.86
2023-03-08T11:21:52.189Z,40.88
2023-03-08T11:22:54.757Z,44.93
2023-03-08T11:23:57.224Z,43.31
2023-03-08T11:24:59.752Z,43.19
2023-03-08T11:26:02.642Z,45.80
2023-03-08T11:27:05.300Z,45.01
2023-03-08T11:28:08.037Z,46.69
2023-03-08T11:29:10.784Z,42.76
2023-03-08T11:30:13.590Z,47.65
2023-03-08T11:31:16.231Z,43.24
2023-03-08T11:32:19.013Z,46.69
2023-03-08T11:33:22.333Z,41.34
2023-03-08T11:34:25.269Z,45.66
2023-03-08T11:35:28.159Z,45.20
2023-03-08T11:36:30.931Z,48.30
2023-03-08T11:37:33.478Z,49.93
2023-03-08T11:38:36.240Z,44.47
2023-03-08T11:39:38.826Z,44.44
2023-03-08T11:40:41.553Z,48.36
2023-03-08T11:41:44.153Z,46.87
2023-03-08T11:42:46.776Z,45.96
2023-03-08T11:43:49.323Z,43.43
2023-03-08T11:44:51.989Z,47.73
2023-03-08T11:45:54.563Z,50.23
2023-03-08T11:46:57.418Z,47.75
2023-03-08T11:48:00.024Z,48.70
2023-03-08T11:49:02.617Z,47.57
2023-03-08T11:50:05.548Z,53.48
2023-03-08T11:51:08.097Z,43.64
2023-03-08T11:52:10.669Z,43.93
2023-03-08T11:53:13.264Z,42.91
2023-03-08T11:54:15.912Z,44.03
2023-03-08T11:55:18.397Z,45.18
2023-03-08T11:56:21.362Z,46.67
2023-03-08T11:57:24.002Z,45.61
2023-03-08T11:58:26.564Z,42.38
2023-03-08T11:59:29.132Z,43.63
2023-03-08T12:00:32.009Z,43.04
2023-03-08T12:01:34.624Z,42.76
2023-03-08T12:02:37.378Z,47.70
2023-03-08T12:03:40.006Z,43.34
2023-03-08T12:04:42.747Z,43.80
2023-03-08T12:05:45.748Z,41.94
2023-03-08T12:06:48.786Z,40.77
2023-03-08T12:07:51.665Z,39.64
2023-03-08T12:08:54.229Z,42.15
2023-03-08T12:09:56.854Z,40.85
2023-03-08T12:10:59.587Z,40.15
2023-03-08T12:12:03.489Z,39.52
2023-03-08T12:13:06.113Z,41.82
2023-03-08T12:14:08.737Z,44.56
2023-03-08T12:15:11.332Z,47.93
2023-03-08T12:16:14.329Z,40.86
2023-03-08T12:17:16.970Z,44.26
2023-03-08T12:18:19.510Z,44.52
2023-03-08T12:19:22.123Z,49.61
2023-03-08T12:20:24.790Z,54.95
2023-03-08T12:21:27.354Z,53.43
2023-03-08T12:22:29.940Z,50.82
2023-03-08T12:23:32.495Z,52.21
2023-03-08T12:24:35.061Z,53.50
2023-03-08T12:25:37.638Z,52.23
2023-03-08T12:26:40.302Z,48.36
2023-03-08T12:27:42.874Z,41.96
2023-03-08T12:28:45.728Z,44.33
2023-03-08T12:29:48.318Z,44.25
2023-03-08T12:30:51.204Z,46.66
2023-03-08T12:31:53.872Z,45.69
2023-03-08T12:32:56.851Z,45.86
2023-03-08T12:33:59.568Z,39.28
2023-03-08T12:35:02.105Z,46.27
2023-03-08T12:36:04.974Z,41.27
2023-03-08T12:37:07.915Z,41.29
2023-03-08T12:38:10.560Z,43.03
2023-03-08T12:39:13.102Z,42.07
2023-03-08T12:40:15.885Z,41.96
2023-03-08T12:41:18.496Z,40.65
2023-03-08T12:42:21.181Z,42.88
2023-03-08T12:43:23.762Z,43.69
2023-03-08T12:44:26.335Z,43.66
2023-03-08T12:45:28.946Z,39.96
2023-03-08T12:46:31.866Z,46.88
2023-03-08T12:47:34.467Z,42.34
2023-03-08T12:48:37.565Z,45.02
2023-03-08T12:49:40.126Z,47.54
2023-03-08T12:50:43.135Z,42.94
2023-03-08T12:51:45.706Z,46.83
2023-03-08T12:52:48.590Z,41.29
2023-03-08T12:53:51.052Z,44.07
2023-03-08T12:54:53.584Z,38.01
2023-03-08T12:55:56.138Z,43.82
2023-03-08T12:56:59.208Z,43.40
2023-03-08T12:58:01.775Z,45.01
2023-03-08T12:59:04.385Z,40.81
2023-03-08T13:00:08.194Z,39.91
2023-03-08T13:01:10.755Z,38.04
2023-03-08T13:02:13.323Z,30.29
2023-03-08T13:03:15.878Z,35.45
2023-03-08T13:04:22.815Z,59.26
2023-03-08T13:05:22.820Z,31.20
2023-03-08T13:06:25.718Z,41.11
2023-03-08T13:07:28.252Z,40.63
2023-03-08T13:08:30.844Z,34.73
2023-03-08T13:09:33.387Z,39.41
2023-03-08T13:10:36.060Z,37.05
2023-03-08T13:11:38.631Z,38.20
2023-03-08T13:12:41.106Z,42.75
2023-03-08T13:13:43.741Z,39.85
2023-03-08T13:14:46.459Z,46.09
2023-03-08T13:15:51.014Z,36.85
2023-03-08T13:16:53.821Z,40.54
2023-03-08T13:17:56.292Z,41.04
2023-03-08T13:18:58.880Z,46.69
2023-03-08T13:20:01.688Z,37.46
2023-03-08T13:21:04.327Z,46.23
2023-03-08T13:22:06.909Z,41.56
2023-03-08T13:23:09.663Z,34.57
2023-03-08T13:24:12.176Z,38.42
2023-03-08T13:25:14.806Z,36.10
2023-03-08T13:26:18.290Z,39.08
2023-03-08T13:27:21.484Z,35.70